Saltar al contingut principal

Dades de l'estació automàtica els Alamús

Selector estació i data
?
?

Resum diari

21:30 TU
Dades diàries de l'estació meteorològica
Temperatura mitjana 15.0 °C
Temperatura màxima 21.0 °C 14:43 TU
Temperatura mínima 10.1 °C 21:39 TU
Humitat relativa mitjana 88%
Precipitació acumulada 8.6 mm
Ratxa màxima del vent (2 m) 41.8 km/h - 301º 17:41 TU

El tram horari està expressat en Temps Universal (TU). Cal sumar una hora en horari d'hivern i dues en horari d'estiu per passar a l'hora oficial.

els Alamús

Metadades estació meteorològica
Municipi Els Alamús
Comarca Segrià
Altitud 231 m
Data alta 22.06.2011
Estat actual Operativa
Dades de període
Període
TU
TM
°C
TX
°C
TN
°C
HRM
%
PPT
mm
VVM (2 m)
km/h
DVM (2 m)
graus
VVX (2 m)
km/h
00:00 - 00:30 12.7 12.8 12.6 100 0.0 4.0 113 7.6
00:30 - 01:00 12.6 12.6 12.5 100 0.0 3.6 111 6.1
01:00 - 01:30 12.4 12.5 12.3 100 0.0 3.2 97 7.9
01:30 - 02:00 12.3 12.4 12.0 100 0.0 2.9 147 6.8
02:00 - 02:30 12.3 12.5 12.0 100 0.1 1.1 224 4.7
02:30 - 03:00 12.4 12.5 12.4 100 1.2 1.1 295 4.7
03:00 - 03:30 12.3 12.4 12.3 100 0.1 4.3 43 9.7
03:30 - 04:00 12.2 12.3 12.1 100 0.1 5.0 93 11.5
04:00 - 04:30 12.1 12.2 12.1 100 0.0 4.7 120 8.6
04:30 - 05:00 11.9 12.1 11.7 100 0.0 3.6 134 6.5
05:00 - 05:30 11.5 11.6 11.4 100 0.0 2.9 147 4.7
05:30 - 06:00 12.1 12.7 11.6 100 0.0 2.2 122 6.5
06:00 - 06:30 13.1 13.3 12.7 100 0.0 2.2 6 8.6
06:30 - 07:00 13.4 13.5 13.2 100 0.0 3.2 35 7.2
07:00 - 07:30 13.8 14.5 13.3 100 0.0 3.6 18 9.0
07:30 - 08:00 14.8 15.0 14.6 100 0.0 5.8 46 11.9
08:00 - 08:30 15.4 16.2 14.9 97 0.0 4.0 98 7.2
08:30 - 09:00 17.1 17.7 16.4 79 0.0 5.4 72 11.9
09:00 - 09:30 18.0 18.7 17.3 69 0.0 4.7 319 11.9
09:30 - 10:00 18.4 19.1 18.0 67 0.0 4.7 315 11.5
10:00 - 10:30 18.6 19.3 18.3 66 0.0 3.6 296 9.7
10:30 - 11:00 19.9 20.5 19.2 64 0.0 3.6 175 11.9
11:00 - 11:30 20.0 20.4 19.5 63 0.0 4.3 267 11.9
11:30 - 12:00 19.6 20.2 19.1 66 0.0 3.2 235 10.4
12:00 - 12:30 18.3 19.1 17.8 79 0.5 3.6 237 10.1
12:30 - 13:00 17.8 18.0 17.6 90 0.2 4.7 220 13.3
13:00 - 13:30 18.8 20.0 17.7 77 0.0 4.0 229 9.4
13:30 - 14:00 19.9 20.4 19.5 62 0.0 3.6 179 10.1
14:00 - 14:30 19.9 20.2 19.4 61 0.0 2.5 148 7.6
14:30 - 15:00 20.6 21.0 20.2 62 0.0 1.8 176 6.8
15:00 - 15:30 20.5 21.0 19.9 63 0.0 1.8 187 6.8
15:30 - 16:00 19.7 20.0 18.9 65 0.0 4.0 86 15.1
16:00 - 16:30 18.1 18.8 17.4 81 0.2 7.2 128 14.8
16:30 - 17:00 17.1 17.3 17.0 92 0.1 2.9 178 7.6
17:00 - 17:30 17.0 17.1 16.8 90 0.0 4.3 189 12.6
17:30 - 18:00 13.7 16.8 12.3 87 2.8 18.7 292 41.8
18:00 - 18:30 12.0 12.3 11.9 100 2.5 6.1 284 15.1
18:30 - 19:00 11.9 12.2 11.7 100 0.8 2.9 163 10.4
19:00 - 19:30 11.8 11.9 11.6 100 0.0 9.4 140 18.0
19:30 - 20:00 11.3 11.6 10.8 100 0.0 1.8 151 8.3
20:00 - 20:30 10.5 10.7 10.4 100 0.0 1.8 164 4.7
20:30 - 21:00 10.3 10.4 10.2 100 0.0 2.2 220 4.7
21:00 - 21:30 10.5 10.5 10.3 100 0.0 2.5 289 6.8
21:30 - 22:00 10.5 11.0 10.1 100 0.0 0.7 304 4.0

Les dades en taronja només han passat un control de qualitat automàtic. Resta pendent la seva validació definitiva.